Time;durP1;ratioP1;P1;durP2;ratioP2;P2;SDS_P1;SDS_P2;PMS_P1;PMS_P2;Temp;Humidity;BMP_temperature;BMP_pressure;BME280_temperature;BME280_humidity;BME280_pressure;Samples;Min_cycle;Max_cycle;Signal;HPM_P1;HPM_P2
2022/05/23 00:01:53;;;;;;;6.28;2.63;;;;;;;14.67;60.37;100818.63;5105519;27;20516;-72
2022/05/23 00:04:20;;;;;;;5.10;2.00;;;;;;;14.56;60.70;100821.94;5107042;27;20051;-72
2022/05/23 00:06:48;;;;;;;4.72;1.98;;;;;;;14.37;61.58;100818.88;5106831;27;20063;-72
2022/05/23 00:09:16;;;;;;;3.65;1.92;;;;;;;14.36;61.34;100811.91;5104806;27;20052;-72
2022/05/23 00:11:43;;;;;;;6.78;1.98;;;;;;;14.72;59.93;100793.59;5106332;27;20073;-72
2022/05/23 00:14:10;;;;;;;5.72;1.85;;;;;;;14.83;60.14;100784.94;5105956;28;20553;-72
2022/05/23 00:16:38;;;;;;;4.70;2.45;;;;;;;14.58;61.05;100791.03;5106187;28;20039;-72
2022/05/23 00:19:06;;;;;;;3.22;1.95;;;;;;;14.61;61.04;100790.84;5104821;28;20043;-72
2022/05/23 00:21:32;;;;;;;4.50;2.00;;;;;;;14.49;61.90;100789.00;5106171;28;20092;-72
2022/05/23 00:23:59;;;;;;;8.13;3.10;;;;;;;14.44;62.10;100776.16;5105573;28;20778;-71
2022/05/23 00:26:26;;;;;;;5.43;2.45;;;;;;;14.28;62.70;100772.81;5106112;28;20055;-72
2022/05/23 00:28:52;;;;;;;3.90;2.10;;;;;;;14.19;62.84;100768.13;5106421;27;20051;-72
2022/05/23 00:31:19;;;;;;;5.38;2.30;;;;;;;14.03;63.45;100767.47;5101473;27;20548;-72
2022/05/23 00:36:33;;;;;;;5.20;2.38;;;;;;;14.26;62.47;100750.13;5105056;28;20274;-72
2022/05/23 00:39:00;;;;;;;8.45;2.55;;;;;;;14.25;62.26;100758.97;5105430;28;20100;-72
2022/05/23 00:44:19;;;;;;;6.70;2.63;;;;;;;13.89;62.92;100759.59;5100996;28;20587;-71
2022/05/23 00:46:54;;;;;;;5.00;2.22;;;;;;;13.92;63.38;100749.72;5105870;27;20063;-71
2022/05/23 00:49:27;;;;;;;7.35;2.30;;;;;;;14.01;62.80;100742.97;5106391;27;20051;-72
2022/05/23 00:51:57;;;;;;;5.32;2.35;;;;;;;13.76;63.83;100743.72;5106127;27;20483;-72
2022/05/23 00:54:25;;;;;;;4.57;2.00;;;;;;;14.04;62.19;100740.97;5105381;27;20104;-72
2022/05/23 00:56:53;;;;;;;5.90;2.50;;;;;;;14.18;61.47;100732.16;5105962;27;20112;-72
2022/05/23 00:59:24;;;;;;;6.75;2.30;;;;;;;14.24;61.28;100728.25;5105355;27;20067;-72
2022/05/23 01:01:50;;;;;;;4.20;2.40;;;;;;;14.31;61.12;100721.63;5095754;27;20071;-72
2022/05/23 01:04:16;;;;;;;6.00;2.75;;;;;;;14.33;61.08;100722.38;5105483;28;20088;-72
2022/05/23 01:06:43;;;;;;;3.80;2.17;;;;;;;14.38;60.57;100725.56;5106208;28;20065;-72
2022/05/23 01:09:11;;;;;;;6.30;2.40;;;;;;;14.17;60.95;100737.53;5104487;28;20495;-72
2022/05/23 01:11:39;;;;;;;3.60;2.00;;;;;;;14.22;60.84;100728.38;5100235;27;20044;-72
2022/05/23 01:14:05;;;;;;;4.25;2.50;;;;;;;14.58;59.10;100725.06;5106468;28;20407;-72
2022/05/23 01:16:32;;;;;;;5.13;2.47;;;;;;;14.54;58.81;100726.22;5103888;27;20067;-71
2022/05/23 01:18:59;;;;;;;8.85;3.97;;;;;;;14.03;61.16;100727.91;5104942;27;20097;-71
2022/05/23 01:21:35;;;;;;;7.95;2.45;;;;;;;13.92;61.23;100740.94;5105385;27;20124;-72
2022/05/23 01:24:11;;;;;;;5.63;2.33;;;;;;;13.63;62.27;100741.03;5104959;27;20481;-71
2022/05/23 01:26:39;;;;;;;5.25;2.25;;;;;;;13.54;62.56;100739.00;5105422;27;20130;-71
2022/05/23 01:29:11;;;;;;;4.20;2.42;;;;;;;14.03;60.97;100730.56;5103523;28;20044;-72
2022/05/23 01:31:38;;;;;;;6.25;2.63;;;;;;;13.97;61.05;100721.25;5104801;27;20052;-71
2022/05/23 01:34:04;;;;;;;4.80;2.47;;;;;;;14.06;60.98;100720.66;5106590;27;20051;-72
2022/05/23 01:36:31;;;;;;;4.72;2.20;;;;;;;13.75;61.17;100720.09;5106741;27;20112;-71
2022/05/23 01:38:57;;;;;;;4.00;2.17;;;;;;;13.60;62.32;100722.78;5103483;27;20073;-72
2022/05/23 01:41:23;;;;;;;4.43;2.28;;;;;;;13.95;61.13;100722.28;5106587;27;20124;-72
2022/05/23 01:43:52;;;;;;;3.97;2.17;;;;;;;13.95;60.82;100717.03;5105090;27;20044;-72
2022/05/23 01:46:19;;;;;;;3.67;1.90;;;;;;;14.00;60.63;100712.31;5106208;27;20519;-72
2022/05/23 01:48:45;;;;;;;7.22;2.30;;;;;;;13.82;61.35;100703.78;5106095;27;20101;-72
2022/05/23 01:51:11;;;;;;;6.35;2.50;;;;;;;13.63;61.79;100714.69;5103606;27;20040;-72
2022/05/23 01:53:38;;;;;;;6.30;2.10;;;;;;;13.85;60.81;100710.69;5107978;27;20043;-72
2022/05/23 01:56:05;;;;;;;3.65;1.92;;;;;;;13.57;61.19;100709.81;5108465;27;20611;-72
2022/05/23 02:01:17;;;;;;;3.80;2.47;;;;;;;13.43;62.14;100714.28;5109280;27;20129;-72
2022/05/23 02:03:45;;;;;;;3.92;2.20;;;;;;;13.25;62.83;100713.66;5106886;27;20545;-72
2022/05/23 02:06:12;;;;;;;3.95;2.20;;;;;;;13.42;62.07;100712.59;5108788;27;20572;-72
2022/05/23 02:08:39;;;;;;;4.95;2.03;;;;;;;13.33;62.33;100708.78;5108862;27;20069;-72
2022/05/23 02:11:06;;;;;;;3.30;2.17;;;;;;;13.54;62.16;100712.66;5108148;27;20097;-72
2022/05/23 02:13:34;;;;;;;4.60;2.30;;;;;;;13.39;62.14;100713.63;5108642;28;20487;-72
2022/05/23 02:16:01;;;;;;;4.57;2.25;;;;;;;13.09;63.18;100715.53;5109533;27;20039;-72
2022/05/23 02:18:29;;;;;;;3.85;2.10;;;;;;;13.15;62.95;100710.75;5107605;27;20698;-72
2022/05/23 02:20:55;;;;;;;6.57;2.30;;;;;;;13.37;61.99;100702.38;5107375;27;20044;-72
2022/05/23 02:23:22;;;;;;;5.13;2.40;;;;;;;13.28;62.30;100705.56;5109380;27;20092;-72
2022/05/23 02:25:48;;;;;;;7.20;2.25;;;;;;;12.99;63.60;100699.47;5108084;27;20472;-72
2022/05/23 02:28:15;;;;;;;4.80;2.50;;;;;;;13.02;63.56;100698.44;5109537;27;20528;-72
2022/05/23 02:30:41;;;;;;;4.93;2.42;;;;;;;13.15;63.08;100699.41;5108404;27;20071;-72
2022/05/23 02:33:07;;;;;;;3.42;2.65;;;;;;;13.17;62.84;100681.69;5105550;27;20544;-72
2022/05/23 02:35:37;;;;;;;4.47;2.20;;;;;;;12.98;63.19;100691.66;5107418;27;20073;-72
2022/05/23 02:38:04;;;;;;;11.27;2.42;;;;;;;12.78;63.75;100689.44;5109121;27;20047;-72
2022/05/23 02:40:30;;;;;;;3.20;2.28;;;;;;;13.07;62.95;100681.41;5106566;27;20120;-72
2022/05/23 02:42:56;;;;;;;6.38;2.38;;;;;;;12.98;63.77;100691.66;5106567;27;20043;-72
2022/05/23 02:45:23;;;;;;;4.00;2.17;;;;;;;12.98;64.21;100692.50;5105500;27;20444;-71
2022/05/23 02:47:51;;;;;;;5.88;2.25;;;;;;;12.97;63.47;100690.81;5098248;27;20093;-71
2022/05/23 02:50:17;;;;;;;3.75;2.20;;;;;;;12.94;63.78;100685.75;5106641;27;20062;-71
2022/05/23 02:52:45;;;;;;;4.45;2.60;;;;;;;12.97;63.79;100679.47;5108111;27;20069;-72
2022/05/23 02:55:12;;;;;;;5.88;2.40;;;;;;;12.90;63.88;100678.13;5106411;27;20096;-72
2022/05/23 02:57:39;;;;;;;7.38;2.78;;;;;;;12.68;64.42;100684.72;5106963;27;20075;-72
2022/05/23 03:00:08;;;;;;;4.65;2.35;;;;;;;12.66;64.29;100683.13;5107248;27;20044;-72
2022/05/23 03:05:19;;;;;;;3.58;2.40;;;;;;;12.39;65.14;100677.75;5107439;27;20049;-71
2022/05/23 03:07:46;;;;;;;6.45;2.60;;;;;;;12.46;65.10;100668.56;5106232;27;20058;-71
2022/05/23 03:10:13;;;;;;;4.50;2.60;;;;;;;12.42;64.96;100674.94;5106635;27;20047;-71
2022/05/23 03:12:39;;;;;;;7.78;2.45;;;;;;;12.30;65.56;100664.31;5107532;27;20047;-71
2022/05/23 03:15:07;;;;;;;3.78;2.83;;;;;;;12.19;66.03;100664.97;5105456;27;20059;-71
2022/05/23 03:17:34;;;;;;;7.82;2.72;;;;;;;12.11;66.63;100672.44;5107379;27;20048;-71
2022/05/23 03:20:00;;;;;;;4.97;2.60;;;;;;;12.29;66.02;100665.25;5108054;27;20055;-72
2022/05/23 03:27:56;;;;;;;5.50;2.95;;;;;;;12.06;67.44;100659.56;5100490;27;20112;-71
2022/05/23 03:30:22;;;;;;;4.38;2.38;;;;;;;12.54;65.65;100671.56;5105057;28;20067;-71
2022/05/23 03:32:49;;;;;;;4.82;2.47;;;;;;;11.82;68.12;100662.81;5107475;28;20135;-71
2022/05/23 03:35:16;;;;;;;3.60;2.50;;;;;;;11.58;68.88;100662.38;5107970;28;20047;-71
2022/05/23 03:37:42;;;;;;;3.45;2.58;;;;;;;11.86;68.40;100659.06;5105664;28;20051;-71
2022/05/23 03:40:10;;;;;;;5.93;2.53;;;;;;;12.12;67.26;100653.13;5105292;27;20069;-71
2022/05/23 03:42:38;;;;;;;7.90;2.75;;;;;;;11.70;68.41;100661.69;5107680;28;20064;-71
2022/05/23 03:45:07;;;;;;;3.67;2.50;;;;;;;12.09;67.52;100658.53;5105795;27;20059;-71
2022/05/23 03:47:34;;;;;;;4.18;2.60;;;;;;;12.03;67.38;100658.91;5105981;27;20048;-71
2022/05/23 03:50:00;;;;;;;4.50;2.58;;;;;;;12.33;66.20;100666.75;5106459;27;20117;-71
2022/05/23 03:52:26;;;;;;;6.30;2.53;;;;;;;12.44;65.92;100666.97;5106224;27;20105;-71
2022/05/23 03:54:53;;;;;;;3.78;2.63;;;;;;;12.97;64.39;100668.94;5105098;27;20685;-71
2022/05/23 03:57:19;;;;;;;4.43;2.55;;;;;;;13.02;64.43;100672.94;5107428;27;20048;-71
2022/05/23 03:59:47;;;;;;;4.15;2.72;;;;;;;13.03;63.89;100665.91;5106384;27;20101;-71
2022/05/23 04:02:14;;;;;;;4.43;2.40;;;;;;;12.90;64.74;100667.59;5105266;27;20059;-71
2022/05/23 04:04:40;;;;;;;7.82;2.63;;;;;;;12.84;64.42;100666.22;5106414;27;20039;-71
2022/05/23 04:07:07;;;;;;;6.50;3.35;;;;;;;12.88;64.83;100670.34;5106707;27;20040;-71
2022/05/23 04:09:34;;;;;;;9.85;3.08;;;;;;;13.00;64.95;100666.09;5104741;27;20784;-72
2022/05/23 04:12:00;;;;;;;8.38;2.63;;;;;;;12.84;65.09;100663.56;5107232;27;20542;-72
2022/05/23 04:14:28;;;;;;;5.10;3.55;;;;;;;12.94;65.02;100669.09;5106001;27;20044;-72
2022/05/23 04:16:56;;;;;;;5.35;2.92;;;;;;;13.24;64.13;100666.34;5104066;27;20492;-71
2022/05/23 04:19:23;;;;;;;7.32;2.55;;;;;;;13.03;64.61;100664.13;5106412;27;20247;-71
2022/05/23 04:21:49;;;;;;;4.88;2.85;;;;;;;13.27;63.80;100655.63;5105992;27;20476;-71
2022/05/23 04:24:17;;;;;;;6.60;2.63;;;;;;;13.00;66.23;100666.09;5106627;27;20074;-71
2022/05/23 04:26:44;;;;;;;11.68;2.85;;;;;;;12.99;65.50;100657.34;5106414;27;20051;-71
2022/05/23 04:29:10;;;;;;;4.32;2.67;;;;;;;13.24;65.35;100655.81;5104141;27;20488;-71
2022/05/23 04:31:37;;;;;;;6.78;2.90;;;;;;;13.36;63.98;100634.81;5105443;27;20043;-71
2022/05/23 04:36:50;;;;;;;6.70;2.92;;;;;;;13.44;63.59;100643.09;5103720;28;20051;-71
2022/05/23 04:39:17;;;;;;;6.10;2.67;;;;;;;13.50;64.03;100632.13;5105610;27;20043;-71
2022/05/23 04:41:43;;;;;;;6.72;2.65;;;;;;;13.78;63.02;100625.91;5104026;28;20044;-71
2022/05/23 04:44:09;;;;;;;4.00;2.53;;;;;;;13.83;63.57;100622.94;5106035;27;20066;-71
2022/05/23 04:46:36;;;;;;;5.80;3.17;;;;;;;14.32;62.40;100621.31;5106519;27;20202;-72
2022/05/23 04:51:48;;;;;;;4.68;2.67;;;;;;;14.35;61.86;100618.50;5105531;27;20059;-72
2022/05/23 04:54:14;;;;;;;5.30;2.60;;;;;;;14.43;61.84;100613.53;5105115;27;20359;-71
2022/05/23 04:56:40;;;;;;;6.68;3.00;;;;;;;14.56;61.65;100608.22;5105297;27;20044;-71
2022/05/23 04:59:06;;;;;;;5.47;2.60;;;;;;;14.47;61.93;100600.97;5103587;27;20075;-71
2022/05/23 05:01:33;;;;;;;5.57;2.60;;;;;;;14.29;62.79;100597.78;5105235;27;20051;-71
2022/05/23 05:03:59;;;;;;;6.20;2.92;;;;;;;14.44;62.13;100590.63;5100953;27;20047;-71
2022/05/23 05:06:26;;;;;;;6.07;3.05;;;;;;;14.84;61.18;100583.38;5104590;27;20446;-71
2022/05/23 05:09:34;;;;;;;8.00;2.58;;;;;;;13.99;64.96;100577.00;5096871;27;20044;-71
2022/05/23 05:12:00;;;;;;;6.43;2.92;;;;;;;14.16;65.19;100573.19;5105480;27;20527;-71
2022/05/23 05:14:27;;;;;;;6.35;3.20;;;;;;;14.83;63.02;100569.31;5104214;27;20065;-71
2022/05/23 05:16:54;;;;;;;7.20;3.00;;;;;;;14.40;64.60;100571.53;5105243;27;20089;-71
2022/05/23 05:19:20;;;;;;;7.63;3.08;;;;;;;14.26;65.77;100571.63;5105169;27;20043;-71
2022/05/23 05:21:47;;;;;;;9.82;3.22;;;;;;;14.65;63.95;100573.28;5106273;27;20457;-71
2022/05/23 05:24:13;;;;;;;6.43;3.08;;;;;;;14.80;65.14;100566.91;5105194;27;20424;-71
2022/05/23 05:26:42;;;;;;;9.68;3.78;;;;;;;15.47;63.41;100560.19;5106525;27;20403;-71
2022/05/23 05:29:08;;;;;;;6.28;3.60;;;;;;;16.03;61.60;100555.91;5107974;27;20039;-71
2022/05/23 05:31:41;;;;;;;5.65;3.35;;;;;;;16.07;60.82;100548.56;5107768;27;20112;-71
2022/05/23 05:34:14;;;;;;;5.15;2.85;;;;;;;16.30;60.71;100550.25;5108999;27;20051;-71
2022/05/23 05:36:44;;;;;;;5.10;2.80;;;;;;;16.72;59.70;100547.84;5108411;27;20067;-70
2022/05/23 05:39:11;;;;;;;5.63;2.88;;;;;;;16.93;58.38;100543.47;5124742;27;20196;-70
2022/05/23 05:41:45;;;;;;;5.90;2.70;;;;;;;17.12;57.90;100538.38;5108337;27;20120;-70
2022/05/23 05:44:17;;;;;;;5.57;3.20;;;;;;;17.13;58.76;100544.50;5107479;27;20131;-70
2022/05/23 05:46:49;;;;;;;12.60;2.97;;;;;;;17.67;55.83;100539.94;5107713;28;20040;-71
2022/05/23 05:49:19;;;;;;;7.10;3.20;;;;;;;18.38;52.83;100535.59;5110552;27;20101;-71
2022/05/23 05:51:49;;;;;;;4.32;2.60;;;;;;;17.59;55.14;100533.63;5109601;28;20100;-71
2022/05/23 05:54:21;;;;;;;6.85;2.53;;;;;;;17.72;55.72;100540.41;5109012;27;20091;-71
2022/05/23 05:56:47;;;;;;;5.30;2.60;;;;;;;18.13;54.06;100536.88;5107220;27;20039;-70
2022/05/23 05:59:16;;;;;;;5.82;2.67;;;;;;;18.26;52.61;100531.34;5107457;27;20067;-70
2022/05/23 06:01:42;;;;;;;5.38;2.90;;;;;;;17.60;54.73;100532.63;5109457;27;20097;-70
2022/05/23 06:04:09;;;;;;;5.18;2.90;;;;;;;18.20;55.35;100522.09;5108264;27;20101;-70
2022/05/23 06:12:03;;;;;;;5.15;3.08;;;;;;;19.57;51.54;100515.09;5108414;27;20522;-70
2022/05/23 06:14:31;;;;;;;5.22;2.90;;;;;;;19.75;49.49;100516.06;5108179;27;20122;-70
2022/05/23 06:16:57;;;;;;;6.75;2.70;;;;;;;18.56;51.48;100517.22;5110252;27;20067;-71
2022/05/23 06:19:24;;;;;;;7.03;2.58;;;;;;;18.83;52.92;100509.47;5107277;27;20131;-71
2022/05/23 06:21:50;;;;;;;3.70;2.55;;;;;;;18.50;52.07;100515.94;5107881;27;20068;-70
2022/05/23 06:24:17;;;;;;;7.05;2.78;;;;;;;18.46;53.63;100523.34;5108630;27;20052;-70
2022/05/23 06:26:44;;;;;;;4.97;2.58;;;;;;;17.94;54.56;100526.16;5107782;27;20500;-71
2022/05/23 06:29:10;;;;;;;5.47;2.97;;;;;;;18.15;54.08;100523.47;5109273;27;20445;-71
2022/05/23 06:31:38;;;;;;;6.55;3.05;;;;;;;19.03;53.16;100513.00;5107563;28;20089;-71
2022/05/23 06:34:04;;;;;;;4.95;2.60;;;;;;;19.03;53.68;100510.34;5106541;27;20483;-71
2022/05/23 06:36:31;;;;;;;8.68;2.97;;;;;;;19.41;53.13;100513.88;5109941;28;20590;-71
2022/05/23 06:38:57;;;;;;;6.22;2.67;;;;;;;19.17;52.93;100518.75;5106961;28;20079;-71
2022/05/23 06:41:23;;;;;;;8.05;2.58;;;;;;;19.42;53.50;100512.91;5107986;28;20052;-71
2022/05/23 06:43:50;;;;;;;5.95;2.70;;;;;;;19.23;51.10;100514.69;5108867;27;20132;-71
2022/05/23 06:46:16;;;;;;;6.72;2.67;;;;;;;18.58;52.15;100516.13;5106260;27;20061;-71
2022/05/23 06:48:45;;;;;;;6.32;2.88;;;;;;;18.77;52.85;100510.03;5108304;28;20079;-71
2022/05/23 06:51:12;;;;;;;5.38;2.75;;;;;;;18.59;52.63;100507.16;5108408;28;20054;-71
2022/05/23 06:53:38;;;;;;;5.25;2.78;;;;;;;18.32;53.18;100515.75;5108746;28;20100;-71
2022/05/23 06:56:05;;;;;;;8.50;3.28;;;;;;;18.76;53.04;100506.53;5105528;27;20044;-71
2022/05/23 06:58:31;;;;;;;5.45;3.03;;;;;;;19.23;51.55;100496.91;5108180;27;20104;-71
2022/05/23 07:00:57;;;;;;;8.02;3.33;;;;;;;18.96;51.07;100488.78;5105790;27;20043;-72
2022/05/23 07:03:24;;;;;;;5.43;3.33;;;;;;;18.87;50.48;100485.16;5107591;27;20124;-72
2022/05/23 07:14:11;;;;;;;8.18;2.85;;;;;;;18.97;53.24;100474.53;5107375;27;20100;-72
2022/05/23 07:16:38;;;;;;;6.10;3.10;;;;;;;19.57;51.73;100473.41;5105673;27;20051;-72
2022/05/23 07:19:04;;;;;;;6.00;2.88;;;;;;;20.12;50.77;100479.66;5106063;27;20495;-71
2022/05/23 07:21:33;;;;;;;5.75;3.13;;;;;;;20.54;47.38;100484.53;5109399;27;20039;-71
2022/05/23 07:23:59;;;;;;;6.78;3.15;;;;;;;20.03;46.49;100485.03;5106132;27;20650;-71
2022/05/23 07:26:26;;;;;;;6.35;3.17;;;;;;;19.66;48.96;100472.53;5107177;27;20047;-71
2022/05/23 07:28:53;;;;;;;6.55;3.10;;;;;;;19.40;50.33;100474.91;5107248;27;20100;-71
2022/05/23 07:31:20;;;;;;;10.50;3.05;;;;;;;19.34;50.17;100477.31;5106274;27;20043;-71
2022/05/23 07:33:46;;;;;;;6.28;2.90;;;;;;;19.42;49.89;100465.03;5106951;27;20308;-71
2022/05/23 07:36:14;;;;;;;4.93;3.25;;;;;;;19.26;49.88;100467.38;5107704;27;20097;-71
2022/05/23 07:38:42;;;;;;;6.18;3.08;;;;;;;19.49;48.73;100461.78;5104497;27;20047;-71
2022/05/23 07:41:10;;;;;;;4.90;2.70;;;;;;;19.63;48.67;100458.66;5105692;27;20043;-71
2022/05/23 07:43:39;;;;;;;6.88;3.05;;;;;;;19.66;49.48;100450.44;5107741;27;20653;-72
2022/05/23 07:46:09;;;;;;;9.20;2.63;;;;;;;18.88;50.86;100446.16;5106266;27;20080;-72
2022/05/23 07:48:36;;;;;;;4.70;2.60;;;;;;;19.43;49.49;100449.91;5106775;27;20489;-71
2022/05/23 07:51:03;;;;;;;5.95;2.70;;;;;;;19.51;50.42;100436.72;5105804;27;20040;-71
2022/05/23 08:01:43;;;;;;;4.38;2.55;;;;;;;19.63;49.81;100429.41;5106585;27;20051;-72
2022/05/23 08:04:09;;;;;;;3.97;2.15;;;;;;;19.96;47.83;100436.00;5107823;27;20039;-72
2022/05/23 08:06:36;;;;;;;5.93;2.10;;;;;;;19.87;49.99;100427.94;5105734;27;20112;-71
2022/05/23 08:09:03;;;;;;;7.30;2.30;;;;;;;19.78;49.83;100435.94;5104726;27;20611;-71
2022/05/23 08:11:31;;;;;;;5.88;2.22;;;;;;;19.51;49.28;100430.59;5107329;27;20059;-71
2022/05/23 08:13:58;;;;;;;8.10;2.45;;;;;;;19.76;49.83;100421.97;5106095;27;20449;-72
2022/05/23 08:16:25;;;;;;;6.03;2.30;;;;;;;20.33;50.31;100419.06;5104608;27;20454;-72
2022/05/23 08:18:51;;;;;;;4.07;2.33;;;;;;;19.97;49.40;100413.75;5105478;27;20050;-72
2022/05/23 08:21:18;;;;;;;10.07;2.55;;;;;;;19.95;48.53;100415.75;5104593;27;20047;-71
2022/05/23 08:23:44;;;;;;;4.28;2.10;;;;;;;19.88;49.82;100412.81;5103728;27;20048;-71
2022/05/23 08:26:11;;;;;;;6.85;2.35;;;;;;;20.63;48.86;100409.88;5105700;27;20043;-72
2022/05/23 08:28:39;;;;;;;5.15;2.03;;;;;;;21.10;46.86;100409.66;5105372;27;20113;-71
2022/05/23 08:31:05;;;;;;;6.72;2.10;;;;;;;21.02;46.33;100414.91;5103749;27;20085;-71
2022/05/23 08:33:31;;;;;;;8.88;2.10;;;;;;;21.06;44.99;100413.63;5105483;27;20700;-72
2022/05/23 08:35:58;;;;;;;7.07;2.25;;;;;;;21.01;47.00;100416.75;5104614;27;20085;-71
2022/05/23 08:38:24;;;;;;;7.18;2.90;;;;;;;20.87;46.13;100406.63;5103062;27;20097;-72
2022/05/23 08:41:02;;;;;;;10.57;2.13;;;;;;;20.95;46.63;100420.03;5104934;28;20119;-71
2022/05/23 08:43:37;;;;;;;4.68;2.55;;;;;;;20.51;47.58;100403.09;5104787;27;20138;-71
2022/05/23 08:46:06;;;;;;;14.25;3.47;;;;;;;20.34;47.78;100410.09;5104990;27;20075;-72
2022/05/23 08:48:43;;;;;;;5.40;2.03;;;;;;;20.83;46.58;100395.44;5105047;27;20100;-72
2022/05/23 08:51:15;;;;;;;5.97;2.17;;;;;;;20.34;46.68;100394.09;5102950;27;20040;-71
2022/05/23 08:53:46;;;;;;;;;;;;;;;21.02;46.61;100381.09;5104606;28;20476;-71
2022/05/23 08:56:21;;;;;;;5.88;2.20;;;;;;;20.67;46.39;100379.28;5104166;27;19959;-72
2022/05/23 08:58:52;;;;;;;4.82;2.15;;;;;;;20.87;45.12;100374.66;5102592;27;20392;-71
2022/05/23 09:01:24;;;;;;;8.15;2.53;;;;;;;21.01;44.33;100383.91;5106274;27;20044;-71
2022/05/23 09:03:54;;;;;;;4.68;2.00;;;;;;;21.48;41.83;100371.09;5103206;27;20043;-71
2022/05/23 09:06:27;;;;;;;6.80;2.00;;;;;;;21.49;42.22;100362.94;5104847;27;20093;-70
2022/05/23 09:08:56;;;;;;;6.05;2.10;;;;;;;21.38;43.61;100375.69;5102373;27;20039;-72
2022/05/23 09:11:29;;;;;;;5.78;2.10;;;;;;;21.48;41.81;100363.94;5105228;27;20050;-71
2022/05/23 09:13:55;;;;;;;5.07;2.10;;;;;;;21.35;42.71;100355.53;5070080;27;1006977;-71
2022/05/23 09:16:27;;;;;;;4.00;2.10;;;;;;;21.18;42.72;100349.25;5104899;28;20051;-71
2022/05/23 09:18:58;;;;;;;4.23;2.00;;;;;;;21.59;41.23;100344.13;5105421;28;20097;-71
2022/05/23 09:22:12;;;;;;;6.93;2.10;;;;;;;21.93;41.02;100341.47;5103869;28;20048;-71
2022/05/23 09:24:11;;;;;;;4.93;1.75;;;;;;;21.79;40.79;100334.91;5103881;28;20399;-71
2022/05/23 09:26:38;;;;;;;5.93;2.20;;;;;;;22.12;40.82;100331.38;5104457;27;20043;-72
2022/05/23 09:29:08;;;;;;;6.60;1.90;;;;;;;22.45;39.63;100323.41;5104658;27;20043;-72
2022/05/23 09:31:49;;;;;;;5.75;2.22;;;;;;;21.80;40.65;100331.25;5105442;27;20048;-72
2022/05/23 09:34:30;;;;;;;6.80;2.30;;;;;;;21.65;40.54;100322.16;5102902;27;20050;-71
2022/05/23 09:36:58;;;;;;;3.88;2.10;;;;;;;22.52;39.84;100322.59;5084862;28;20417;-71
2022/05/23 09:39:26;;;;;;;4.47;2.08;;;;;;;22.41;38.90;100314.91;5083547;28;20090;-71
2022/05/23 09:47:49;;;;;;;3.95;2.10;;;;;;;23.59;35.78;100301.75;5105990;27;20104;-71
2022/05/23 09:50:31;;;;;;;7.80;2.28;;;;;;;23.26;38.04;100290.28;5106532;27;20054;-72
2022/05/23 09:53:01;;;;;;;4.40;1.90;;;;;;;23.22;38.56;100296.16;5104381;27;20067;-70
2022/05/23 09:55:31;;;;;;;2.72;1.80;;;;;;;23.34;37.62;100273.38;5106356;27;20480;-72
2022/05/23 09:58:01;;;;;;;8.25;2.22;;;;;;;23.48;37.97;100271.84;5104881;27;20081;-72
2022/05/23 10:00:33;;;;;;;6.93;2.28;;;;;;;23.49;37.37;100268.19;5103585;27;20044;-71
2022/05/23 10:03:05;;;;;;;;;;;;;;;23.95;37.93;100264.59;5105319;27;20043;-71
2022/05/23 10:05:34;;;;;;;4.15;2.08;;;;;;;24.00;37.06;100253.34;5103584;27;20363;-72
2022/05/23 10:08:02;;;;;;;9.02;2.40;;;;;;;24.03;36.89;100261.03;5105854;27;20044;-72
2022/05/23 10:10:30;;;;;;;4.72;2.10;;;;;;;23.47;36.44;100265.66;5104609;27;20043;-72
2022/05/23 10:13:16;;;;;;;4.60;2.03;;;;;;;23.22;39.39;100264.88;5103166;27;20044;-72
2022/05/23 10:15:44;;;;;;;6.22;2.30;;;;;;;22.67;39.62;100269.31;5108365;27;20445;-71
2022/05/23 10:18:23;;;;;;;4.38;1.85;;;;;;;23.48;39.60;100253.97;5107025;27;20043;-73
2022/05/23 10:20:50;;;;;;;4.32;1.88;;;;;;;24.16;38.06;100245.25;5108273;27;20047;-73
2022/05/23 10:23:21;;;;;;;4.57;2.28;;;;;;;24.30;39.12;100241.78;5109560;27;20040;-72
2022/05/23 10:25:57;;;;;;;4.97;2.20;;;;;;;24.76;35.85;100231.81;5110564;27;20121;-72
2022/05/23 10:28:33;;;;;;;4.45;2.10;;;;;;;24.41;35.98;100232.47;5112475;27;20047;-72
2022/05/23 10:31:04;;;;;;;8.15;2.40;;;;;;;23.82;37.35;100226.84;5104620;27;20105;-73
2022/05/23 10:33:35;;;;;;;5.82;2.30;;;;;;;24.26;36.53;100212.84;5109555;27;20092;-72
2022/05/23 10:36:04;;;;;;;10.57;2.47;;;;;;;25.06;36.92;100214.75;5107073;27;20109;-71
2022/05/23 10:44:17;;;;;;;4.97;2.10;;;;;;;24.88;36.49;100208.09;5106830;27;20069;-73
2022/05/23 10:46:50;;;;;;;4.70;2.15;;;;;;;24.27;36.65;100212.69;5106386;27;20083;-72
2022/05/23 10:49:27;;;;;;;7.78;2.10;;;;;;;24.25;37.45;100228.09;5107236;27;20044;-72
2022/05/23 10:52:02;;;;;;;5.15;2.25;;;;;;;23.90;36.78;100218.78;5106802;28;20072;-71
2022/05/23 10:54:41;;;;;;;3.42;2.28;;;;;;;24.00;37.54;100200.63;5107862;28;20066;-72
2022/05/23 10:57:18;;;;;;;6.72;2.45;;;;;;;24.77;36.08;100201.31;5104782;27;20047;-73
2022/05/23 10:59:53;;;;;;;5.20;2.22;;;;;;;23.95;36.92;100186.91;5106678;28;20039;-72
2022/05/23 11:02:32;;;;;;;5.78;2.53;;;;;;;24.66;37.67;100180.31;5106736;28;20063;-71
2022/05/23 11:05:10;;;;;;;5.50;2.20;;;;;;;24.83;35.73;100176.47;5107932;27;20050;-72
2022/05/23 11:07:49;;;;;;;4.30;2.22;;;;;;;25.39;35.40;100177.63;5106392;28;20438;-73
2022/05/23 11:10:24;;;;;;;3.42;2.30;;;;;;;24.71;36.03;100173.41;5105935;27;20040;-71
2022/05/23 11:12:58;;;;;;;9.15;2.35;;;;;;;24.37;38.75;100172.22;5110781;27;20127;-71
2022/05/23 11:15:38;;;;;;;8.60;2.60;;;;;;;24.76;38.56;100177.38;5107000;27;20043;-72
2022/05/23 11:18:13;;;;;;;4.78;2.17;;;;;;;25.37;36.48;100160.88;5106917;28;20544;-73
2022/05/23 11:20:42;;;;;;;6.03;2.45;;;;;;;25.36;35.54;100158.38;5106330;28;20127;-72
2022/05/23 11:23:16;;;;;;;6.38;2.10;;;;;;;25.80;34.72;100151.06;5107055;28;20122;-73
2022/05/23 11:25:47;;;;;;;4.95;2.25;;;;;;;25.48;36.51;100146.97;5105044;28;20058;-72
2022/05/23 11:34:02;;;;;;;6.13;2.28;;;;;;;26.13;34.74;100152.19;5107033;27;20514;-72
2022/05/23 11:36:45;;;;;;;5.50;2.20;;;;;;;25.19;35.54;100139.00;5107197;27;20517;-71
2022/05/23 11:39:45;;;;;;;9.30;2.72;;;;;;;24.60;36.95;100146.19;5095583;27;20039;-72
2022/05/23 11:42:13;;;;;;;6.40;2.50;;;;;;;24.20;36.40;100134.03;5104824;27;20442;-71
2022/05/23 11:44:56;;;;;;;6.25;2.58;;;;;;;23.69;37.37;100139.09;5107474;27;20108;-71
2022/05/23 11:47:25;;;;;;;5.93;2.22;;;;;;;24.47;36.69;100132.59;5106399;27;20104;-72
2022/05/23 11:50:08;;;;;;;4.32;2.30;;;;;;;25.03;37.23;100120.41;5106645;27;20571;-71
2022/05/23 11:52:42;;;;;;;4.70;2.60;;;;;;;25.51;36.02;100124.28;5107353;27;20063;-71
2022/05/23 11:55:10;;;;;;;6.18;2.83;;;;;;;26.00;34.83;100114.47;5107397;27;20046;-71
2022/05/23 11:57:38;;;;;;;4.32;2.22;;;;;;;25.89;33.55;100128.44;5104773;27;20055;-71
2022/05/23 12:00:28;;;;;;;12.38;2.72;;;;;;;25.82;35.68;100100.69;5105129;27;20453;-71
2022/05/23 12:03:10;;;;;;;6.28;2.63;;;;;;;26.06;35.69;100111.00;5106680;27;20059;-71
2022/05/23 12:05:37;;;;;;;6.35;2.35;;;;;;;26.00;35.02;100102.91;5107571;28;20043;-71
2022/05/23 12:08:29;;;;;;;4.80;2.35;;;;;;;26.54;32.34;100103.09;5105832;27;20070;-72
2022/05/23 12:11:01;;;;;;;6.20;2.55;;;;;;;26.55;34.71;100104.78;5104953;27;20096;-71
2022/05/23 12:13:49;;;;;;;6.55;2.47;;;;;;;26.21;33.66;100093.97;5106318;27;20043;-71
2022/05/23 12:16:43;;;;;;;5.25;2.40;;;;;;;26.01;34.73;100091.97;5105077;27;20069;-71
2022/05/23 12:19:48;;;;;;;5.07;2.30;;;;;;;26.54;33.04;100086.97;5104025;27;20089;-71
2022/05/23 12:22:28;;;;;;;7.50;2.78;;;;;;;26.76;34.04;100099.28;5106003;27;20066;-71
2022/05/23 12:25:24;;;;;;;6.90;1.95;;;;;;;26.93;33.22;100089.91;5106938;27;20046;-71
2022/05/23 12:28:10;;;;;;;6.05;2.10;;;;;;;26.84;36.90;100087.56;5098615;27;20051;-71
2022/05/23 12:30:42;;;;;;;6.70;2.42;;;;;;;26.38;32.51;100080.06;5103160;28;20055;-71
2022/05/23 12:33:20;;;;;;;6.63;2.40;;;;;;;25.69;34.11;100087.13;5104973;27;20480;-71
2022/05/23 12:35:52;;;;;;;6.22;2.50;;;;;;;25.84;34.75;100078.97;5106134;28;20467;-71
2022/05/23 12:38:41;;;;;;;10.70;2.97;;;;;;;26.12;33.52;100077.16;5108844;27;20047;-71